map of VPY home
VPY - Airport
Location
City:  Chimoio, Manica, Mozambique
Name:Chimoio Airport
ICAO:FQCH
IATA:VPY

Details
Type:Airport (Aerodrome, Airfield)
Use:Public/Civil
Latitude:1909'05"S (-19.151266)
Longitude:3325'44"E (33.428958)
Datum:WGS 1984
Elevation:2287 ft (697 m)
Variation:10.86W (WMM2015v2 magnetic declination)
-0.07 annual change
Runways:1
Longest:7874 × 148 ft (2400 × 45 m), paved

Time
Time Zone:UTC+2
Local Time:

Weather
METAR:FQCH 041300Z 12008KT 9999 BKN020 30/22 Q1015
TAF:FQCH 041000Z 0412/0512 VRB02KT 9999 FEW015 TX30/0413Z TN17/0503Z PROB30
TEMPO 0412/0418 6000 -RADZ SCT015 BKN020
BECMG 0418/0420 10007KT
BECMG 0500/0502 05008KT
BECMG 0506/0508 VRB02KT

Related Locations
Nearby:
Farthest:ITO: 11894 mi / 19141 km
Hilo [Hilo Intl], Hawaii, HI, US

Find:

   beyond  
but within

Other Information
Maps:
NOTAMs:
Links:
Sources:

  
  • flag of Mozambique
  

Sectional Chart

Flight Planning
at skyvector.com

Satellite Image

Google Maps Satellite view

 

Copyright © 2004-2019 Karl L. Swartz. All rights reserved.
The Great Circle Mapper name and logo are trademarks of the Great Circle Mapper.
All other trademarks mentioned herein belong to their respective owners.
Please see credits for attibutions and further copyright information.

  Follow gcmap on Facebook Follow gcmap on Twitter GCmap on LinkedIn

hCard Microformat

Geo Microformat